Time;durP1;ratioP1;P1;durP2;ratioP2;P2;SDS_P1;SDS_P2;PMS_P1;PMS_P2;Temp;Humidity;BMP_temperature;BMP_pressure;BME280_temperature;BME280_humidity;BME280_pressure;Samples;Min_cycle;Max_cycle;Signal;HPM_P1;HPM_P2
2023/06/14 00:01:16;;;;;;;7.18;4.55;;;;;;;22.96;53.87;99173.22;5071380;28;20528;-76
2023/06/14 00:03:42;;;;;;;6.55;4.65;;;;;;;22.97;53.94;99172.94;5071401;28;20100;-77
2023/06/14 00:06:08;;;;;;;5.80;4.30;;;;;;;22.51;53.87;99113.66;5071474;28;20064;-76
2023/06/14 00:08:33;;;;;;;8.60;4.63;;;;;;;22.99;54.00;99175.38;5069987;28;20405;-76
2023/06/14 00:10:58;;;;;;;7.00;4.70;;;;;;;22.96;53.85;99179.41;5071557;28;20051;-77
2023/06/14 00:13:24;;;;;;;4.93;4.43;;;;;;;22.96;53.76;99170.53;5071647;28;20481;-77
2023/06/14 00:15:53;;;;;;;4.72;4.00;;;;;;;22.48;54.08;99116.06;5071900;28;20028;-76
2023/06/14 00:18:18;;;;;;;5.63;4.50;;;;;;;22.55;54.04;99099.66;5069841;28;20025;-77
2023/06/14 00:20:44;;;;;;;7.35;4.40;;;;;;;22.94;53.98;99161.91;5071150;28;20025;-76
2023/06/14 00:23:09;;;;;;;6.00;4.70;;;;;;;22.49;54.49;99115.78;5071181;28;20021;-76
2023/06/14 00:25:35;;;;;;;7.13;4.40;;;;;;;22.46;54.55;99104.75;5071355;28;20048;-77
2023/06/14 00:28:20;;;;;;;7.63;4.82;;;;;;;22.79;54.94;99155.41;5071065;28;20060;-76
2023/06/14 00:30:46;;;;;;;5.22;4.50;;;;;;;22.57;55.00;99121.72;5070876;28;20063;-76
2023/06/14 00:33:11;;;;;;;6.03;4.25;;;;;;;22.61;55.13;99139.75;5071079;28;20082;-76
2023/06/14 00:35:37;;;;;;;5.60;4.90;;;;;;;22.46;55.21;99118.19;5069840;28;20028;-76
2023/06/14 00:38:02;;;;;;;5.93;5.22;;;;;;;22.26;55.39;99078.59;5071337;28;20104;-76
2023/06/14 00:40:28;;;;;;;5.45;4.80;;;;;;;22.40;55.63;99100.44;5071041;28;20028;-77
2023/06/14 00:42:53;;;;;;;7.32;4.72;;;;;;;22.69;55.48;99144.63;5070932;28;20103;-76
2023/06/14 00:45:18;;;;;;;5.47;4.20;;;;;;;22.74;55.65;99154.56;5071047;28;20024;-76
2023/06/14 00:47:45;;;;;;;5.13;4.28;;;;;;;22.72;55.72;99154.84;5070968;28;20027;-76
2023/06/14 00:50:11;;;;;;;7.05;4.80;;;;;;;22.46;55.91;99115.50;5070960;28;20053;-76
2023/06/14 00:52:37;;;;;;;5.13;4.57;;;;;;;22.74;55.94;99150.00;5070890;28;20481;-76
2023/06/14 00:55:03;;;;;;;8.32;5.32;;;;;;;22.69;56.06;99155.38;5070911;28;20104;-76
2023/06/14 00:57:29;;;;;;;6.13;5.15;;;;;;;22.46;56.44;99131.66;5074369;28;20539;-77
2023/06/14 00:59:55;;;;;;;7.03;4.93;;;;;;;22.60;56.20;99143.53;5074671;28;20040;-76
2023/06/14 01:02:21;;;;;;;7.00;5.80;;;;;;;22.60;56.49;99154.28;5074677;28;20028;-76
2023/06/14 01:04:49;;;;;;;7.00;5.53;;;;;;;22.56;56.74;99153.19;5073159;28;20113;-76
2023/06/14 01:07:42;;;;;;;6.63;5.38;;;;;;;22.56;56.95;99149.69;5074387;28;20054;-77
2023/06/14 01:10:20;;;;;;;8.60;5.40;;;;;;;22.46;57.16;99145.09;5074507;28;20033;-76
2023/06/14 01:13:11;;;;;;;7.72;5.50;;;;;;;22.33;57.43;99151.00;5074424;28;20555;-76
2023/06/14 01:15:38;;;;;;;5.93;5.28;;;;;;;19.89;57.57;98769.16;5074297;28;20032;-76
2023/06/14 01:18:04;;;;;;;6.22;4.85;;;;;;;22.16;57.65;99118.91;5074113;28;20024;-76
2023/06/14 01:20:32;;;;;;;5.78;5.15;;;;;;;22.13;57.81;99127.50;5074106;28;20020;-76
2023/06/14 01:22:59;;;;;;;8.85;5.50;;;;;;;21.87;57.87;99088.91;5074101;28;20028;-77
2023/06/14 01:25:25;;;;;;;9.45;5.47;;;;;;;22.28;58.07;99159.00;5074144;28;20512;-76
2023/06/14 01:27:54;;;;;;;5.93;5.30;;;;;;;22.30;57.96;99154.22;5073934;28;20115;-76
2023/06/14 01:30:22;;;;;;;9.35;5.43;;;;;;;22.32;57.91;99141.31;5072669;28;20032;-76
2023/06/14 01:32:50;;;;;;;10.00;5.60;;;;;;;21.98;58.17;99093.25;5074016;28;20028;-76
2023/06/14 01:35:16;;;;;;;7.47;5.43;;;;;;;22.32;58.18;99147.50;5073965;28;20024;-76
2023/06/14 01:37:43;;;;;;;6.07;5.20;;;;;;;22.33;58.07;99148.28;5074016;28;20413;-76
2023/06/14 01:40:10;;;;;;;7.22;5.63;;;;;;;22.28;58.39;99150.94;5074209;28;20085;-77
2023/06/14 01:42:38;;;;;;;10.30;5.43;;;;;;;21.80;58.59;99094.53;5074143;28;20081;-77
2023/06/14 01:45:05;;;;;;;9.40;5.70;;;;;;;22.16;58.70;99146.59;5074320;28;20031;-75
2023/06/14 01:47:35;;;;;;;6.90;6.20;;;;;;;21.32;58.81;99023.09;5074205;28;20020;-78
2023/06/14 01:50:02;;;;;;;7.35;5.50;;;;;;;21.55;58.97;99054.09;5074219;28;20081;-76
2023/06/14 01:52:27;;;;;;;7.10;5.80;;;;;;;21.48;59.10;99048.94;5073641;28;20428;-77
2023/06/14 01:54:53;;;;;;;10.70;6.05;;;;;;;21.72;59.22;99092.34;5073360;28;20028;-77
2023/06/14 01:57:20;;;;;;;9.95;6.15;;;;;;;21.96;59.38;99135.72;5073161;28;20127;-77
2023/06/14 01:59:48;;;;;;;5.85;5.35;;;;;;;21.62;59.48;99076.19;5073416;28;20505;-77
2023/06/14 02:02:14;;;;;;;6.90;5.57;;;;;;;22.00;59.53;99131.44;5072119;28;20028;-77
2023/06/14 02:04:40;;;;;;;7.50;6.20;;;;;;;21.51;59.57;99058.38;5073402;28;20030;-76
2023/06/14 02:07:05;;;;;;;10.70;6.30;;;;;;;21.77;59.74;99099.63;5072850;28;20028;-76
2023/06/14 02:09:31;;;;;;;7.03;5.85;;;;;;;21.63;59.68;99079.69;5073296;28;20394;-77
2023/06/14 02:11:56;;;;;;;11.07;6.15;;;;;;;21.78;59.93;99103.94;5073444;28;20060;-76
2023/06/14 02:14:23;;;;;;;8.20;5.82;;;;;;;21.93;60.02;99130.88;5072880;28;20028;-76
2023/06/14 02:16:49;;;;;;;6.43;5.60;;;;;;;21.89;60.12;99135.16;5072744;28;20090;-76
2023/06/14 02:19:18;;;;;;;8.98;6.13;;;;;;;21.98;59.96;99138.97;5073036;28;20028;-76
2023/06/14 02:21:44;;;;;;;6.90;6.22;;;;;;;21.96;60.14;99137.59;5073161;28;20043;-76
2023/06/14 02:24:10;;;;;;;6.57;5.88;;;;;;;21.88;60.04;99126.28;5073371;28;20029;-76
2023/06/14 02:26:37;;;;;;;7.80;5.75;;;;;;;21.54;59.98;99074.78;5072838;28;20023;-76
2023/06/14 02:29:05;;;;;;;9.70;6.07;;;;;;;22.00;60.02;99147.56;5072947;28;20031;-77
2023/06/14 02:31:34;;;;;;;11.43;6.40;;;;;;;21.64;60.01;99098.22;5072565;28;20027;-76
2023/06/14 02:33:59;;;;;;;7.78;5.68;;;;;;;21.88;60.32;99138.91;5072776;28;20032;-77
2023/06/14 02:36:24;;;;;;;9.45;6.25;;;;;;;21.83;60.34;99131.63;5071595;28;20051;-76
2023/06/14 02:38:50;;;;;;;9.43;6.22;;;;;;;21.94;60.20;99145.13;5071409;28;20064;-77
2023/06/14 02:41:15;;;;;;;10.88;5.85;;;;;;;21.92;60.23;99155.34;5072676;28;20027;-76
2023/06/14 02:43:41;;;;;;;9.60;5.90;;;;;;;21.80;60.20;99131.34;5072622;28;20070;-77
2023/06/14 02:46:07;;;;;;;6.88;6.15;;;;;;;21.46;60.24;99090.56;5072623;28;20508;-76
2023/06/14 02:48:32;;;;;;;9.98;6.22;;;;;;;21.47;60.30;99090.31;5072525;28;20024;-76
2023/06/14 02:50:57;;;;;;;9.60;7.35;;;;;;;21.43;60.26;99091.09;5072470;28;20582;-77
2023/06/14 02:53:23;;;;;;;14.73;7.40;;;;;;;21.60;60.43;99140.13;5071164;28;20461;-76
2023/06/14 02:55:48;;;;;;;12.82;7.68;;;;;;;21.61;60.76;99163.22;5072112;28;20047;-77
2023/06/14 02:58:14;;;;;;;8.55;7.13;;;;;;;21.59;60.77;99167.25;5071192;28;20125;-77
2023/06/14 03:00:40;;;;;;;16.05;7.50;;;;;;;21.58;60.90;99163.75;5072250;28;20051;-77
2023/06/14 03:03:13;;;;;;;9.70;7.57;;;;;;;21.50;61.03;99156.13;5072172;28;20103;-78
2023/06/14 03:05:45;;;;;;;9.40;7.10;;;;;;;21.26;61.03;99136.91;5072105;28;20021;-76
2023/06/14 03:08:16;;;;;;;8.70;7.60;;;;;;;21.55;61.12;99177.66;5071982;28;20031;-76
2023/06/14 03:10:46;;;;;;;8.00;7.20;;;;;;;21.51;61.31;99184.63;5072155;28;20029;-77
2023/06/14 03:13:11;;;;;;;8.07;6.85;;;;;;;20.90;61.30;99101.69;5072271;28;20449;-76
2023/06/14 03:15:38;;;;;;;8.95;7.03;;;;;;;20.88;61.27;99101.16;5071959;28;20024;-76
2023/06/14 03:18:04;;;;;;;10.00;8.35;;;;;;;21.44;61.51;99187.53;5069759;28;20481;-76
2023/06/14 03:20:32;;;;;;;9.68;7.75;;;;;;;20.91;61.44;99108.69;5070443;28;20036;-76
2023/06/14 03:22:59;;;;;;;9.25;7.30;;;;;;;21.45;61.48;99185.66;5071821;28;20027;-76
2023/06/14 03:25:25;;;;;;;9.73;8.18;;;;;;;21.14;61.48;99144.31;5071700;28;20052;-77
2023/06/14 03:27:51;;;;;;;8.88;7.18;;;;;;;21.27;61.39;99157.31;5071563;28;20032;-77
2023/06/14 03:30:16;;;;;;;9.70;7.18;;;;;;;21.53;61.45;99194.03;5071502;28;20421;-77
2023/06/14 03:32:42;;;;;;;8.57;7.38;;;;;;;21.08;61.30;99131.91;5071564;28;20489;-76
2023/06/14 03:35:07;;;;;;;8.73;6.70;;;;;;;21.35;61.47;99172.97;5071786;28;20127;-76
2023/06/14 03:37:33;;;;;;;9.60;7.55;;;;;;;21.19;61.42;99130.91;5070371;28;20036;-77
2023/06/14 03:39:58;;;;;;;9.63;7.15;;;;;;;21.51;61.23;99190.00;5071658;28;20057;-77
2023/06/14 03:42:23;;;;;;;9.25;7.30;;;;;;;21.01;61.38;99129.44;5070465;28;20073;-76
2023/06/14 03:44:49;;;;;;;10.77;7.57;;;;;;;21.26;61.42;99153.00;5071701;28;20032;-77
2023/06/14 03:47:14;;;;;;;8.02;7.20;;;;;;;21.53;61.20;99196.72;5070512;28;20028;-76
2023/06/14 03:49:40;;;;;;;8.73;6.95;;;;;;;21.58;61.30;99203.22;5071632;28;20025;-76
2023/06/14 03:52:06;;;;;;;10.43;8.25;;;;;;;21.10;61.09;99119.03;5070311;28;20114;-77
2023/06/14 03:54:32;;;;;;;12.90;7.05;;;;;;;21.33;61.23;99152.78;5071071;28;20039;-76
2023/06/14 03:56:58;;;;;;;17.50;8.02;;;;;;;21.64;61.16;99204.88;5071031;28;20051;-76
2023/06/14 03:59:24;;;;;;;9.35;7.88;;;;;;;21.18;61.29;99134.66;5071457;28;20444;-76
2023/06/14 04:01:49;;;;;;;13.57;8.75;;;;;;;21.45;61.50;99172.22;5071445;28;20481;-77
2023/06/14 04:04:16;;;;;;;9.80;8.60;;;;;;;21.33;61.39;99156.28;5071341;28;20024;-77
2023/06/14 04:06:42;;;;;;;10.18;8.98;;;;;;;21.27;61.36;99154.63;5071056;28;20028;-75
2023/06/14 04:09:08;;;;;;;13.00;7.63;;;;;;;21.56;61.42;99217.72;5071179;28;20082;-75
2023/06/14 04:11:33;;;;;;;10.15;8.95;;;;;;;21.43;61.58;99199.34;5071435;28;20469;-77
2023/06/14 04:13:59;;;;;;;13.93;8.48;;;;;;;21.50;61.59;99223.28;5069901;28;20027;-76
2023/06/14 04:16:25;;;;;;;12.85;8.90;;;;;;;21.13;61.71;99172.22;5071316;28;20051;-76
2023/06/14 04:18:52;;;;;;;9.40;7.93;;;;;;;20.98;61.85;99147.94;5071209;28;20473;-77
2023/06/14 04:21:18;;;;;;;12.25;8.35;;;;;;;20.67;61.76;99095.84;5071143;28;20036;-77
2023/06/14 04:23:43;;;;;;;9.98;8.50;;;;;;;21.39;61.81;99210.84;5071309;28;20032;-77
2023/06/14 04:26:10;;;;;;;13.68;9.30;;;;;;;21.33;61.72;99209.19;5070964;28;20032;-77
2023/06/14 04:28:40;;;;;;;11.75;8.85;;;;;;;21.47;61.96;99226.50;5071001;28;20024;-77
2023/06/14 04:31:08;;;;;;;11.10;9.40;;;;;;;21.51;61.80;99231.09;5074493;28;20024;-77
2023/06/14 04:33:42;;;;;;;14.73;10.00;;;;;;;21.09;61.71;99166.53;5075069;28;20028;-78
2023/06/14 04:36:11;;;;;;;12.20;9.52;;;;;;;21.44;61.64;99213.56;5075032;28;20108;-78
2023/06/14 04:38:37;;;;;;;10.55;9.45;;;;;;;21.36;61.63;99216.72;5074824;28;20020;-75
2023/06/14 04:41:02;;;;;;;11.77;10.27;;;;;;;21.53;61.63;99244.28;5075053;28;20086;-77
2023/06/14 04:43:27;;;;;;;12.27;10.13;;;;;;;20.99;61.80;99166.47;5074830;28;20028;-77
2023/06/14 04:45:54;;;;;;;14.10;12.02;;;;;;;21.19;61.86;99184.59;5074729;28;20103;-77
2023/06/14 04:48:21;;;;;;;13.45;11.27;;;;;;;21.29;61.92;99214.25;5074790;28;20020;-76
2023/06/14 04:50:46;;;;;;;14.95;11.90;;;;;;;21.27;61.82;99207.53;5074857;28;20024;-77
2023/06/14 04:53:12;;;;;;;16.35;12.32;;;;;;;21.68;61.78;99254.34;5073382;28;20031;-76
2023/06/14 04:55:38;;;;;;;17.13;10.80;;;;;;;21.75;61.72;99252.25;5074360;28;20028;-77
2023/06/14 04:58:04;;;;;;;14.15;11.23;;;;;;;21.72;61.55;99242.03;5073445;28;20027;-77
2023/06/14 05:00:30;;;;;;;14.55;11.40;;;;;;;21.91;61.27;99264.72;5074539;28;20039;-77
2023/06/14 05:02:56;;;;;;;11.27;9.98;;;;;;;21.49;60.86;99184.88;5074648;28;20033;-76
2023/06/14 05:05:22;;;;;;;11.27;10.02;;;;;;;21.62;60.59;99199.78;5073213;28;20547;-76
2023/06/14 05:08:06;;;;;;;17.10;10.55;;;;;;;22.25;60.08;99267.91;5074369;28;20028;-76
2023/06/14 05:10:34;;;;;;;12.80;11.10;;;;;;;22.22;59.98;99256.88;5074458;28;20056;-76
2023/06/14 05:13:00;;;;;;;12.55;10.00;;;;;;;21.94;59.42;99191.63;5072898;28;20444;-77
2023/06/14 05:15:26;;;;;;;12.60;9.73;;;;;;;22.39;59.12;99268.28;5074172;28;20032;-77
2023/06/14 05:17:55;;;;;;;13.43;9.40;;;;;;;22.55;58.93;99278.06;5074000;28;20024;-77
2023/06/14 05:20:22;;;;;;;10.98;8.32;;;;;;;22.65;58.64;99280.78;5074256;28;20024;-76
2023/06/14 05:22:50;;;;;;;12.65;8.20;;;;;;;22.74;58.05;99281.09;5074217;28;20062;-76
2023/06/14 05:25:15;;;;;;;10.80;8.45;;;;;;;22.36;57.54;99215.00;5075055;28;20037;-77
2023/06/14 05:27:41;;;;;;;9.73;7.10;;;;;;;22.59;57.50;99244.16;5072946;28;20025;-75
2023/06/14 05:30:08;;;;;;;8.90;8.00;;;;;;;22.37;57.23;99208.56;5073865;28;20413;-76
2023/06/14 05:32:33;;;;;;;9.85;8.00;;;;;;;22.55;57.07;99229.63;5074797;28;20029;-74
2023/06/14 05:34:59;;;;;;;14.30;8.52;;;;;;;22.97;57.24;99290.59;5085200;28;20025;-76
2023/06/14 05:37:24;;;;;;;9.65;8.60;;;;;;;22.96;57.45;99289.78;5073859;28;20028;-76
2023/06/14 05:39:50;;;;;;;13.23;8.60;;;;;;;22.73;57.48;99264.13;5073663;28;20413;-77
2023/06/14 05:42:15;;;;;;;8.45;7.57;;;;;;;22.57;57.47;99222.09;5071616;28;20486;-76
2023/06/14 05:44:41;;;;;;;10.05;8.20;;;;;;;23.10;57.35;99292.81;5073785;28;20029;-76
2023/06/14 05:47:06;;;;;;;10.23;9.18;;;;;;;22.92;57.06;99263.66;5073803;28;20036;-76
2023/06/14 05:49:31;;;;;;;9.88;7.93;;;;;;;22.82;56.96;99259.06;5073518;28;20108;-76
2023/06/14 05:51:57;;;;;;;11.50;8.00;;;;;;;22.96;56.55;99281.72;5073485;28;20542;-77
2023/06/14 05:54:22;;;;;;;11.75;8.80;;;;;;;23.13;56.92;99295.78;5073420;28;20028;-76
2023/06/14 05:56:47;;;;;;;11.57;8.73;;;;;;;22.61;56.75;99209.72;5073008;28;20193;-77
2023/06/14 05:59:13;;;;;;;9.45;8.45;;;;;;;23.27;56.86;99316.84;5075772;28;20024;-76
2023/06/14 06:01:40;;;;;;;11.32;8.10;;;;;;;23.00;56.42;99247.81;5073129;28;20052;-76
2023/06/14 06:04:06;;;;;;;11.90;9.27;;;;;;;22.78;56.43;99217.56;5072648;28;20032;-77
2023/06/14 06:06:32;;;;;;;9.73;8.65;;;;;;;22.94;56.16;99237.28;5072728;28;20024;-76
2023/06/14 06:08:57;;;;;;;11.95;9.23;;;;;;;23.13;56.19;99259.97;5073189;28;20024;-77
2023/06/14 06:11:23;;;;;;;13.68;9.20;;;;;;;23.46;55.99;99309.84;5073287;28;20024;-76
2023/06/14 06:13:48;;;;;;;16.58;11.77;;;;;;;23.47;56.45;99308.78;5072087;28;20029;-75
2023/06/14 06:16:15;;;;;;;15.85;9.48;;;;;;;23.52;56.71;99305.28;5073888;28;20166;-77
2023/06/14 06:18:40;;;;;;;16.10;10.32;;;;;;;23.52;56.99;99305.28;5070308;28;20106;-75
2023/06/14 06:21:06;;;;;;;16.35;11.63;;;;;;;23.55;57.03;99320.94;5071619;28;20517;-75
2023/06/14 06:23:31;;;;;;;14.32;10.27;;;;;;;23.54;56.82;99320.09;5070678;28;20039;-76
2023/06/14 06:25:57;;;;;;;12.30;10.65;;;;;;;23.21;57.08;99254.06;5071706;28;20031;-75
2023/06/14 06:28:22;;;;;;;11.15;9.55;;;;;;;23.64;57.23;99325.53;5074239;28;20047;-78
2023/06/14 06:30:47;;;;;;;22.35;18.58;;;;;;;23.31;57.07;99262.16;5075658;28;20032;-76
2023/06/14 06:33:14;;;;;;;21.40;19.13;;;;;;;23.71;57.44;99317.97;5073566;28;20043;-78
2023/06/14 06:35:39;;;;;;;11.57;10.27;;;;;;;23.77;57.46;99325.00;5071148;28;20028;-76
2023/06/14 06:38:05;;;;;;;11.77;9.68;;;;;;;23.83;57.31;99315.06;5072407;28;20503;-76
2023/06/14 06:40:30;;;;;;;12.10;10.38;;;;;;;23.80;57.26;99315.59;5072606;28;20091;-77
2023/06/14 06:42:56;;;;;;;14.23;10.18;;;;;;;23.62;57.23;99292.66;5069783;28;20491;-77
2023/06/14 06:45:23;;;;;;;13.73;10.20;;;;;;;23.54;57.44;99276.16;5074455;28;20080;-77
2023/06/14 06:47:48;;;;;;;18.48;12.25;;;;;;;23.83;57.12;99317.75;5072557;28;20100;-76
2023/06/14 06:50:32;;;;;;;12.13;10.75;;;;;;;23.62;57.21;99291.84;5071753;28;20560;-76
2023/06/14 06:52:58;;;;;;;11.18;9.82;;;;;;;23.49;56.60;99270.78;5090120;28;20024;-75
2023/06/14 06:55:23;;;;;;;11.65;8.82;;;;;;;23.39;56.17;99250.84;5079792;28;20547;-76
2023/06/14 06:57:49;;;;;;;8.25;7.25;;;;;;;23.31;55.29;99229.00;5083160;28;20086;-77
2023/06/14 07:00:16;;;;;;;9.70;7.43;;;;;;;23.97;54.32;99321.50;5075525;28;20037;-76
2023/06/14 07:02:41;;;;;;;8.55;7.75;;;;;;;23.66;54.37;99266.78;5070449;28;20513;-77
2023/06/14 07:05:07;;;;;;;10.52;5.90;;;;;;;23.72;53.98;99254.09;5071755;28;20063;-76
2023/06/14 07:07:32;;;;;;;8.60;6.18;;;;;;;24.11;54.22;99319.06;5071773;28;20103;-76
2023/06/14 07:09:58;;;;;;;9.13;6.57;;;;;;;24.23;53.63;99324.97;5072034;28;20032;-76
2023/06/14 07:12:24;;;;;;;6.43;5.82;;;;;;;23.61;53.54;99228.22;5070491;28;20055;-77
2023/06/14 07:14:49;;;;;;;6.10;5.28;;;;;;;24.13;52.73;99308.00;5071743;28;20074;-76
2023/06/14 07:17:14;;;;;;;8.02;5.88;;;;;;;24.28;52.61;99321.50;5071513;28;20024;-75
2023/06/14 07:19:40;;;;;;;5.78;5.25;;;;;;;24.30;52.12;99339.03;5071715;28;20024;-75
2023/06/14 07:22:05;;;;;;;8.70;6.38;;;;;;;24.18;52.25;99311.50;5071769;28;20413;-75
2023/06/14 07:24:30;;;;;;;9.57;6.43;;;;;;;24.36;52.12;99331.72;5070770;28;20516;-74
2023/06/14 07:26:56;;;;;;;8.18;5.90;;;;;;;23.92;52.60;99251.41;5069303;28;20020;-76
2023/06/14 07:29:21;;;;;;;6.45;5.72;;;;;;;24.45;52.55;99319.28;5070432;28;20115;-75
2023/06/14 07:31:47;;;;;;;12.98;8.18;;;;;;;24.17;52.66;99285.59;5071378;28;20096;-77
2023/06/14 07:34:12;;;;;;;7.85;6.60;;;;;;;24.30;52.44;99311.25;5071579;28;20029;-75
2023/06/14 07:36:38;;;;;;;7.20;5.72;;;;;;;24.50;52.42;99323.88;5071568;28;20024;-76
2023/06/14 07:39:05;;;;;;;7.80;5.72;;;;;;;24.53;52.35;99326.84;5073720;28;20033;-76
2023/06/14 07:41:31;;;;;;;6.60;5.90;;;;;;;24.52;51.62;99321.69;5071756;28;20024;-76
2023/06/14 07:43:56;;;;;;;6.60;5.90;;;;;;;24.55;51.89;99332.78;5070421;28;20394;-75
2023/06/14 07:46:22;;;;;;;6.70;5.18;;;;;;;24.66;51.79;99333.56;5070864;28;20115;-75
2023/06/14 07:48:47;;;;;;;5.50;5.10;;;;;;;24.75;50.99;99317.59;5071807;28;20021;-75
2023/06/14 07:51:13;;;;;;;6.93;5.13;;;;;;;24.82;50.94;99315.41;5066583;28;20081;-75
2023/06/14 07:53:39;;;;;;;5.65;4.53;;;;;;;24.76;50.34;99284.13;5075581;28;20089;-75
2023/06/14 07:56:04;;;;;;;6.43;4.07;;;;;;;24.75;50.05;99269.00;5073166;28;21035;-75
2023/06/14 07:58:30;;;;;;;5.65;4.32;;;;;;;24.77;49.84;99264.13;5072037;28;20482;-76
2023/06/14 08:00:55;;;;;;;5.03;4.50;;;;;;;25.27;49.22;99322.53;5069378;28;20103;-75
2023/06/14 08:03:22;;;;;;;6.78;4.72;;;;;;;25.05;49.25;99298.56;5071663;28;20025;-76
2023/06/14 08:05:48;;;;;;;5.15;4.45;;;;;;;25.44;48.83;99339.16;5071750;28;20023;-76
2023/06/14 08:08:13;;;;;;;5.22;4.43;;;;;;;25.55;48.35;99335.31;5085769;28;20023;-76
2023/06/14 08:10:38;;;;;;;4.97;4.57;;;;;;;25.66;47.97;99344.19;5080028;28;20052;-76
2023/06/14 08:13:04;;;;;;;6.07;4.70;;;;;;;25.71;47.62;99338.72;5071140;28;20035;-76
2023/06/14 08:15:29;;;;;;;5.70;4.50;;;;;;;25.24;47.95;99274.41;5072055;28;20028;-74
2023/06/14 08:17:55;;;;;;;5.70;4.80;;;;;;;25.62;47.85;99322.28;5071780;28;20504;-76
2023/06/14 08:20:20;;;;;;;6.03;4.40;;;;;;;24.98;48.29;99214.34;5068417;28;20501;-75
2023/06/14 08:22:47;;;;;;;6.13;5.13;;;;;;;25.43;48.53;99266.47;5066481;28;20197;-76
2023/06/14 08:25:15;;;;;;;5.75;4.47;;;;;;;25.63;47.91;99298.75;5067284;28;20563;-75
2023/06/14 08:27:41;;;;;;;5.70;4.88;;;;;;;25.79;47.83;99305.69;5067261;28;20013;-77
2023/06/14 08:30:08;;;;;;;8.52;5.35;;;;;;;26.18;47.67;99335.38;5065609;28;20543;-75
2023/06/14 08:32:33;;;;;;;5.70;4.63;;;;;;;25.98;47.46;99306.59;5066570;28;20119;-77
2023/06/14 08:34:58;;;;;;;8.45;4.85;;;;;;;25.82;47.43;99274.53;5066704;28;20035;-74
2023/06/14 08:37:24;;;;;;;8.77;7.00;;;;;;;25.70;47.73;99263.31;5064808;28;20030;-76
2023/06/14 08:39:49;;;;;;;10.73;9.63;;;;;;;26.16;47.74;99329.44;5063595;28;20016;-76
2023/06/14 08:42:15;;;;;;;6.47;5.50;;;;;;;25.95;47.25;99282.81;5083544;28;20031;-76
2023/06/14 08:44:41;;;;;;;6.90;5.88;;;;;;;25.91;47.22;99295.28;5077929;28;20028;-76
2023/06/14 08:47:09;;;;;;;5.68;5.00;;;;;;;26.06;47.58;99343.06;5069408;28;20027;-76
2023/06/14 08:49:37;;;;;;;7.40;5.32;;;;;;;26.12;47.68;99355.47;5069648;28;20016;-76
2023/06/14 08:52:05;;;;;;;12.15;9.02;;;;;;;26.06;47.40;99320.63;5068150;28;20021;-76
2023/06/14 08:54:32;;;;;;;8.20;5.80;;;;;;;26.48;47.04;99363.25;5068701;28;20455;-76
2023/06/14 08:56:58;;;;;;;5.70;4.70;;;;;;;26.53;46.75;99333.41;5066656;28;20044;-76
2023/06/14 08:59:26;;;;;;;5.57;4.90;;;;;;;26.62;46.53;99322.75;5069363;28;20033;-76
2023/06/14 09:01:52;;;;;;;7.55;4.30;;;;;;;26.65;45.93;99295.91;5069277;28;20108;-76
2023/06/14 09:04:19;;;;;;;6.00;4.53;;;;;;;26.81;45.51;99308.19;5070567;28;20111;-76
2023/06/14 09:06:45;;;;;;;4.40;4.00;;;;;;;27.19;45.07;99330.75;5067605;28;20016;-76
2023/06/14 09:09:12;;;;;;;6.40;4.40;;;;;;;27.34;44.29;99347.88;5069783;28;20028;-77
2023/06/14 09:11:37;;;;;;;5.00;4.50;;;;;;;27.39;44.11;99347.81;5068575;28;20035;-75
2023/06/14 09:14:03;;;;;;;6.13;3.75;;;;;;;27.46;43.87;99343.63;5069461;28;20020;-77
2023/06/14 09:16:28;;;;;;;4.10;3.70;;;;;;;27.31;43.42;99321.38;5068169;28;20078;-76
2023/06/14 09:18:54;;;;;;;5.97;4.85;;;;;;;27.26;43.80;99319.53;5073012;28;20013;-77
2023/06/14 09:21:20;;;;;;;4.75;4.00;;;;;;;27.09;43.56;99271.25;5086606;28;20073;-77
2023/06/14 09:23:47;;;;;;;5.25;4.22;;;;;;;27.30;43.40;99282.59;5076392;28;20052;-76
2023/06/14 09:26:32;;;;;;;6.07;5.38;;;;;;;27.99;43.04;99337.16;5071881;28;20016;-75
2023/06/14 09:28:57;;;;;;;6.68;5.05;;;;;;;28.30;42.69;99334.75;5073730;28;20036;-78
2023/06/14 09:31:23;;;;;;;4.97;4.43;;;;;;;28.58;42.67;99324.72;5076816;28;20466;-75
2023/06/14 09:33:50;;;;;;;5.68;4.68;;;;;;;28.63;41.38;99311.03;5072313;28;20024;-76
2023/06/14 09:36:21;;;;;;;6.60;4.55;;;;;;;28.78;40.68;99286.25;5075198;28;20025;-77
2023/06/14 09:38:54;;;;;;;10.60;7.78;;;;;;;29.04;40.80;99300.16;5069012;28;20066;-76
2023/06/14 09:41:19;;;;;;;9.35;8.35;;;;;;;28.92;40.79;99249.03;5086953;28;20024;-76
2023/06/14 09:43:46;;;;;;;14.48;13.10;;;;;;;29.15;40.27;99266.22;5074774;28;20089;-76
2023/06/14 09:46:13;;;;;;;22.70;20.30;;;;;;;29.47;39.72;99297.84;5082034;28;20526;-76
2023/06/14 09:48:42;;;;;;;7.10;5.68;;;;;;;29.72;39.06;99320.91;5077485;28;20527;-76
2023/06/14 09:51:13;;;;;;;26.90;24.15;;;;;;;29.84;38.59;99313.00;5064851;28;20439;-75
2023/06/14 09:53:42;;;;;;;8.88;7.57;;;;;;;29.64;38.31;99278.91;5065910;28;20036;-78
2023/06/14 09:56:10;;;;;;;11.05;9.93;;;;;;;29.98;38.07;99308.28;5069557;28;20149;-76
2023/06/14 09:58:39;;;;;;;7.32;6.35;;;;;;;29.95;37.63;99267.28;5070639;28;20028;-76
2023/06/14 10:01:08;;;;;;;7.10;6.50;;;;;;;30.07;37.11;99281.16;5070796;28;20029;-76
2023/06/14 10:03:35;;;;;;;3.63;3.28;;;;;;;30.27;37.07;99290.69;5073917;28;20042;-77
2023/06/14 10:06:03;;;;;;;8.63;6.85;;;;;;;30.21;36.63;99272.88;5078066;28;20085;-77
2023/06/14 10:08:33;;;;;;;8.98;7.47;;;;;;;30.25;36.34;99295.63;5071647;28;21670;-76
2023/06/14 10:10:58;;;;;;;5.30;3.60;;;;;;;30.33;36.57;99294.88;5072056;28;20405;-76
2023/06/14 10:13:26;;;;;;;8.13;6.07;;;;;;;29.78;36.77;99259.81;5072704;28;20029;-77
2023/06/14 10:16:00;;;;;;;5.60;4.43;;;;;;;29.69;37.11;99307.91;5072005;28;20016;-76
2023/06/14 10:18:38;;;;;;;4.28;3.60;;;;;;;29.12;37.54;99250.50;5074029;28;20031;-76
2023/06/14 10:21:22;;;;;;;5.30;3.60;;;;;;;29.69;37.25;99297.03;5076337;28;20021;-75
2023/06/14 10:23:49;;;;;;;4.38;3.50;;;;;;;29.56;36.77;99236.13;5070874;28;20032;-77
2023/06/14 10:26:23;;;;;;;5.40;4.85;;;;;;;30.17;36.71;99277.34;5077209;28;20024;-76
2023/06/14 10:29:08;;;;;;;4.22;3.40;;;;;;;30.58;35.67;99283.28;5080695;28;20474;-76
2023/06/14 10:31:48;;;;;;;4.78;3.72;;;;;;;30.67;35.11;99262.34;5077712;28;20024;-77
2023/06/14 10:34:26;;;;;;;4.00;3.35;;;;;;;31.13;34.93;99290.13;5069477;28;20028;-75
2023/06/14 10:37:12;;;;;;;4.75;3.60;;;;;;;31.02;34.74;99248.75;5075857;28;20028;-77
2023/06/14 10:39:43;;;;;;;6.28;5.47;;;;;;;31.12;34.47;99234.78;5068410;28;20058;-74
2023/06/14 10:42:09;;;;;;;5.03;4.32;;;;;;;31.19;35.25;99240.59;5070970;28;20024;-77
2023/06/14 10:44:40;;;;;;;5.80;4.13;;;;;;;31.60;34.93;99282.94;5071647;28;20497;-77
2023/06/14 10:47:28;;;;;;;6.55;4.60;;;;;;;31.84;34.01;99283.25;5074188;28;20589;-77
2023/06/14 10:50:05;;;;;;;6.47;4.28;;;;;;;31.77;34.59;99261.09;5067884;28;20494;-77
2023/06/14 10:52:35;;;;;;;6.53;3.85;;;;;;;31.98;33.56;99274.09;5064178;28;20493;-75
2023/06/14 10:55:22;;;;;;;7.47;4.28;;;;;;;31.84;33.71;99277.00;5075816;28;20032;-76
2023/06/14 10:57:51;;;;;;;6.80;4.10;;;;;;;31.44;34.55;99273.66;5072745;28;20036;-77
2023/06/14 11:00:27;;;;;;;5.82;4.75;;;;;;;30.56;35.30;99222.03;5071561;28;20461;-76
2023/06/14 11:03:13;;;;;;;9.35;6.07;;;;;;;30.62;35.96;99278.03;5071877;28;20512;-76
2023/06/14 11:05:47;;;;;;;4.10;3.65;;;;;;;30.81;34.65;99273.09;5071844;28;20032;-77
2023/06/14 11:08:33;;;;;;;6.55;4.57;;;;;;;31.23;34.21;99273.50;5084829;28;20112;-77
2023/06/14 11:11:00;;;;;;;4.47;3.72;;;;;;;31.55;33.88;99267.53;5069650;28;20123;-76
2023/06/14 11:13:26;;;;;;;5.78;3.70;;;;;;;31.85;33.19;99268.47;5076372;28;20025;-77
2023/06/14 11:15:56;;;;;;;5.30;4.72;;;;;;;31.60;33.31;99193.69;5073354;28;20027;-76
2023/06/14 11:18:24;;;;;;;10.50;7.90;;;;;;;32.00;33.37;99241.78;5072005;28;20020;-76
2023/06/14 11:20:50;;;;;;;4.70;3.60;;;;;;;31.78;33.12;99207.31;5084355;28;20466;-77
2023/06/14 11:23:15;;;;;;;7.45;6.25;;;;;;;31.87;33.52;99224.47;5073471;28;20063;-76
2023/06/14 11:25:41;;;;;;;6.47;5.82;;;;;;;32.44;33.17;99248.69;5072863;28;20028;-76
2023/06/14 11:28:06;;;;;;;5.80;5.15;;;;;;;32.36;32.89;99183.94;5078769;28;20111;-76
2023/06/14 11:30:32;;;;;;;4.45;4.15;;;;;;;33.02;32.13;99250.59;5071042;28;20149;-76